sensor_id;sensor_type;location;lat;lon;timestamp;temperature;humidity
40600;DHT22;26309;50.924;4.754;2023-07-29T00:01:04;21.30;99.90
40600;DHT22;26309;50.924;4.754;2023-07-29T00:03:30;21.30;99.90
40600;DHT22;26309;50.924;4.754;2023-07-29T00:05:58;21.30;99.90
40600;DHT22;26309;50.924;4.754;2023-07-29T00:08:24;21.30;99.90
40600;DHT22;26309;50.924;4.754;2023-07-29T00:10:49;21.30;99.90
40600;DHT22;26309;50.924;4.754;2023-07-29T00:13:16;21.30;99.90
40600;DHT22;26309;50.924;4.754;2023-07-29T00:15:42;21.30;99.90
40600;DHT22;26309;50.924;4.754;2023-07-29T00:18:08;21.30;99.90
40600;DHT22;26309;50.924;4.754;2023-07-29T00:20:33;21.20;99.90
40600;DHT22;26309;50.924;4.754;2023-07-29T00:23:03;21.20;99.90
40600;DHT22;26309;50.924;4.754;2023-07-29T00:25:29;21.20;99.90
40600;DHT22;26309;50.924;4.754;2023-07-29T00:27:57;21.20;99.90
40600;DHT22;26309;50.924;4.754;2023-07-29T00:30:25;21.30;99.90
40600;DHT22;26309;50.924;4.754;2023-07-29T00:32:52;21.00;99.90
40600;DHT22;26309;50.924;4.754;2023-07-29T00:35:18;20.90;99.90
40600;DHT22;26309;50.924;4.754;2023-07-29T00:37:44;21.00;99.90
40600;DHT22;26309;50.924;4.754;2023-07-29T00:40:19;20.90;99.90
40600;DHT22;26309;50.924;4.754;2023-07-29T00:42:58;20.90;99.90
40600;DHT22;26309;50.924;4.754;2023-07-29T00:45:29;20.70;99.90
40600;DHT22;26309;50.924;4.754;2023-07-29T00:47:56;20.60;99.90
40600;DHT22;26309;50.924;4.754;2023-07-29T00:50:22;20.50;99.90
40600;DHT22;26309;50.924;4.754;2023-07-29T00:52:49;20.40;99.90
40600;DHT22;26309;50.924;4.754;2023-07-29T00:55:16;20.30;99.90
40600;DHT22;26309;50.924;4.754;2023-07-29T00:57:42;20.40;99.90
40600;DHT22;26309;50.924;4.754;2023-07-29T01:00:14;20.40;99.90
40600;DHT22;26309;50.924;4.754;2023-07-29T01:02:43;20.20;99.90
40600;DHT22;26309;50.924;4.754;2023-07-29T01:05:12;20.10;99.90
40600;DHT22;26309;50.924;4.754;2023-07-29T01:07:59;20.00;99.90
40600;DHT22;26309;50.924;4.754;2023-07-29T01:11:12;20.10;99.90
40600;DHT22;26309;50.924;4.754;2023-07-29T01:14:01;20.00;99.90
40600;DHT22;26309;50.924;4.754;2023-07-29T01:16:42;19.80;99.90
40600;DHT22;26309;50.924;4.754;2023-07-29T01:19:30;19.60;99.90
40600;DHT22;26309;50.924;4.754;2023-07-29T01:21:59;19.60;99.90
40600;DHT22;26309;50.924;4.754;2023-07-29T01:24:26;19.40;99.90
40600;DHT22;26309;50.924;4.754;2023-07-29T01:26:52;19.50;99.90
40600;DHT22;26309;50.924;4.754;2023-07-29T01:29:17;19.40;99.90
40600;DHT22;26309;50.924;4.754;2023-07-29T01:31:46;19.40;99.90
40600;DHT22;26309;50.924;4.754;2023-07-29T01:34:32;19.50;99.90
40600;DHT22;26309;50.924;4.754;2023-07-29T01:37:03;19.60;99.90
40600;DHT22;26309;50.924;4.754;2023-07-29T01:39:32;19.60;99.90
40600;DHT22;26309;50.924;4.754;2023-07-29T01:42:04;19.60;99.90
40600;DHT22;26309;50.924;4.754;2023-07-29T01:44:31;19.70;99.90
40600;DHT22;26309;50.924;4.754;2023-07-29T01:46:57;19.60;99.90
40600;DHT22;26309;50.924;4.754;2023-07-29T01:49:23;19.70;99.90
40600;DHT22;26309;50.924;4.754;2023-07-29T01:51:49;19.70;99.90
40600;DHT22;26309;50.924;4.754;2023-07-29T01:54:15;19.70;99.90
40600;DHT22;26309;50.924;4.754;2023-07-29T01:56:41;19.80;99.90
40600;DHT22;26309;50.924;4.754;2023-07-29T01:59:06;19.60;99.90
40600;DHT22;26309;50.924;4.754;2023-07-29T02:01:33;19.60;99.90
40600;DHT22;26309;50.924;4.754;2023-07-29T02:03:59;19.60;99.90
40600;DHT22;26309;50.924;4.754;2023-07-29T02:06:25;19.60;99.90
40600;DHT22;26309;50.924;4.754;2023-07-29T02:08:53;19.50;99.90
40600;DHT22;26309;50.924;4.754;2023-07-29T02:11:19;19.60;99.90
40600;DHT22;26309;50.924;4.754;2023-07-29T02:13:46;19.60;99.90
40600;DHT22;26309;50.924;4.754;2023-07-29T02:16:13;19.50;99.90
40600;DHT22;26309;50.924;4.754;2023-07-29T02:18:52;19.40;99.90
40600;DHT22;26309;50.924;4.754;2023-07-29T02:21:18;19.40;99.90
40600;DHT22;26309;50.924;4.754;2023-07-29T02:23:44;19.30;99.90
40600;DHT22;26309;50.924;4.754;2023-07-29T02:26:10;19.20;99.90
40600;DHT22;26309;50.924;4.754;2023-07-29T02:28:39;19.20;99.90
40600;DHT22;26309;50.924;4.754;2023-07-29T02:34:15;19.30;99.90
40600;DHT22;26309;50.924;4.754;2023-07-29T02:36:40;19.20;99.90
40600;DHT22;26309;50.924;4.754;2023-07-29T02:39:07;19.20;99.90
40600;DHT22;26309;50.924;4.754;2023-07-29T02:41:33;19.40;99.90
40600;DHT22;26309;50.924;4.754;2023-07-29T02:43:59;19.20;99.90
40600;DHT22;26309;50.924;4.754;2023-07-29T02:46:24;19.20;99.90
40600;DHT22;26309;50.924;4.754;2023-07-29T02:48:50;19.10;99.90
40600;DHT22;26309;50.924;4.754;2023-07-29T02:51:16;19.20;99.90
40600;DHT22;26309;50.924;4.754;2023-07-29T02:53:42;19.30;99.90
40600;DHT22;26309;50.924;4.754;2023-07-29T02:56:08;19.10;99.90
40600;DHT22;26309;50.924;4.754;2023-07-29T02:58:41;18.90;99.90
40600;DHT22;26309;50.924;4.754;2023-07-29T03:01:06;18.90;99.90
40600;DHT22;26309;50.924;4.754;2023-07-29T03:03:32;18.90;99.90
40600;DHT22;26309;50.924;4.754;2023-07-29T03:06:03;18.90;99.90
40600;DHT22;26309;50.924;4.754;2023-07-29T03:08:31;19.00;99.90
40600;DHT22;26309;50.924;4.754;2023-07-29T03:10:58;19.00;99.90
40600;DHT22;26309;50.924;4.754;2023-07-29T03:13:24;18.90;99.90
40600;DHT22;26309;50.924;4.754;2023-07-29T03:15:51;19.00;99.90
40600;DHT22;26309;50.924;4.754;2023-07-29T03:18:17;19.00;99.90
40600;DHT22;26309;50.924;4.754;2023-07-29T03:20:43;19.10;99.90
40600;DHT22;26309;50.924;4.754;2023-07-29T03:23:10;19.00;99.90
40600;DHT22;26309;50.924;4.754;2023-07-29T03:25:35;18.90;99.90
40600;DHT22;26309;50.924;4.754;2023-07-29T03:28:02;18.90;99.90
40600;DHT22;26309;50.924;4.754;2023-07-29T03:30:28;18.90;99.90
40600;DHT22;26309;50.924;4.754;2023-07-29T03:32:54;18.90;99.90
40600;DHT22;26309;50.924;4.754;2023-07-29T03:35:21;18.90;99.90
40600;DHT22;26309;50.924;4.754;2023-07-29T03:37:47;18.90;99.90
40600;DHT22;26309;50.924;4.754;2023-07-29T03:40:13;18.90;99.90
40600;DHT22;26309;50.924;4.754;2023-07-29T03:42:39;18.90;99.90
40600;DHT22;26309;50.924;4.754;2023-07-29T03:45:05;18.90;99.90
40600;DHT22;26309;50.924;4.754;2023-07-29T03:47:31;18.80;99.90
40600;DHT22;26309;50.924;4.754;2023-07-29T03:49:57;18.80;99.90
40600;DHT22;26309;50.924;4.754;2023-07-29T03:52:25;18.80;99.90
40600;DHT22;26309;50.924;4.754;2023-07-29T03:54:55;18.80;99.90
40600;DHT22;26309;50.924;4.754;2023-07-29T03:57:21;18.80;99.90
40600;DHT22;26309;50.924;4.754;2023-07-29T03:59:47;18.80;99.90
40600;DHT22;26309;50.924;4.754;2023-07-29T04:02:13;18.70;99.90
40600;DHT22;26309;50.924;4.754;2023-07-29T04:04:39;18.60;99.90
40600;DHT22;26309;50.924;4.754;2023-07-29T04:07:07;18.60;99.90
40600;DHT22;26309;50.924;4.754;2023-07-29T04:09:35;18.70;99.90
40600;DHT22;26309;50.924;4.754;2023-07-29T04:12:01;18.60;99.90
40600;DHT22;26309;50.924;4.754;2023-07-29T04:14:28;18.80;99.90
40600;DHT22;26309;50.924;4.754;2023-07-29T04:16:57;18.80;99.90
40600;DHT22;26309;50.924;4.754;2023-07-29T04:19:23;18.80;99.90
40600;DHT22;26309;50.924;4.754;2023-07-29T04:21:48;18.80;99.90
40600;DHT22;26309;50.924;4.754;2023-07-29T04:24:16;18.60;99.90
40600;DHT22;26309;50.924;4.754;2023-07-29T04:26:42;18.60;99.90
40600;DHT22;26309;50.924;4.754;2023-07-29T04:29:07;18.60;99.90
40600;DHT22;26309;50.924;4.754;2023-07-29T04:31:35;18.60;99.90
40600;DHT22;26309;50.924;4.754;2023-07-29T04:34:06;18.70;99.90
40600;DHT22;26309;50.924;4.754;2023-07-29T04:36:32;18.40;99.90
40600;DHT22;26309;50.924;4.754;2023-07-29T04:38:58;18.40;99.90
40600;DHT22;26309;50.924;4.754;2023-07-29T04:41:24;18.40;99.90
40600;DHT22;26309;50.924;4.754;2023-07-29T04:43:51;18.50;99.90
40600;DHT22;26309;50.924;4.754;2023-07-29T04:46:18;18.50;99.90
40600;DHT22;26309;50.924;4.754;2023-07-29T04:48:43;18.50;99.90
40600;DHT22;26309;50.924;4.754;2023-07-29T04:51:09;18.50;99.90
40600;DHT22;26309;50.924;4.754;2023-07-29T04:53:35;18.40;99.90
40600;DHT22;26309;50.924;4.754;2023-07-29T04:56:02;18.60;99.90
40600;DHT22;26309;50.924;4.754;2023-07-29T04:58:31;18.80;99.90
40600;DHT22;26309;50.924;4.754;2023-07-29T05:01:00;19.00;99.90
40600;DHT22;26309;50.924;4.754;2023-07-29T05:03:33;18.90;99.90
40600;DHT22;26309;50.924;4.754;2023-07-29T05:05:59;18.90;99.90
40600;DHT22;26309;50.924;4.754;2023-07-29T05:08:28;19.00;99.90
40600;DHT22;26309;50.924;4.754;2023-07-29T05:10:54;19.00;99.90
40600;DHT22;26309;50.924;4.754;2023-07-29T05:13:20;18.90;99.90
40600;DHT22;26309;50.924;4.754;2023-07-29T05:15:52;18.90;99.90
40600;DHT22;26309;50.924;4.754;2023-07-29T05:18:21;19.00;99.90
40600;DHT22;26309;50.924;4.754;2023-07-29T05:20:47;19.10;99.90
40600;DHT22;26309;50.924;4.754;2023-07-29T05:23:13;19.30;99.90
40600;DHT22;26309;50.924;4.754;2023-07-29T05:25:50;19.40;99.90
40600;DHT22;26309;50.924;4.754;2023-07-29T05:28:17;19.40;99.90
40600;DHT22;26309;50.924;4.754;2023-07-29T05:30:44;19.50;99.90
40600;DHT22;26309;50.924;4.754;2023-07-29T05:33:09;19.60;99.90
40600;DHT22;26309;50.924;4.754;2023-07-29T05:35:35;19.70;99.90
40600;DHT22;26309;50.924;4.754;2023-07-29T05:38:03;20.20;99.90
40600;DHT22;26309;50.924;4.754;2023-07-29T05:40:30;20.70;99.90
40600;DHT22;26309;50.924;4.754;2023-07-29T05:42:56;20.60;99.90
40600;DHT22;26309;50.924;4.754;2023-07-29T05:45:22;20.50;99.90
40600;DHT22;26309;50.924;4.754;2023-07-29T05:48:21;20.50;99.90
40600;DHT22;26309;50.924;4.754;2023-07-29T05:50:47;20.50;99.90
40600;DHT22;26309;50.924;4.754;2023-07-29T05:53:17;20.40;99.90
40600;DHT22;26309;50.924;4.754;2023-07-29T05:55:44;20.40;99.90
40600;DHT22;26309;50.924;4.754;2023-07-29T05:58:10;20.60;99.90
40600;DHT22;26309;50.924;4.754;2023-07-29T06:00:36;20.90;99.90
40600;DHT22;26309;50.924;4.754;2023-07-29T06:03:02;21.40;99.90
40600;DHT22;26309;50.924;4.754;2023-07-29T06:05:30;21.80;99.90
40600;DHT22;26309;50.924;4.754;2023-07-29T06:07:57;21.70;99.90
40600;DHT22;26309;50.924;4.754;2023-07-29T06:10:23;21.80;99.90
40600;DHT22;26309;50.924;4.754;2023-07-29T06:12:49;21.50;99.90
40600;DHT22;26309;50.924;4.754;2023-07-29T06:15:15;21.40;99.90
40600;DHT22;26309;50.924;4.754;2023-07-29T06:17:40;21.30;99.90
40600;DHT22;26309;50.924;4.754;2023-07-29T06:20:07;21.20;99.90
40600;DHT22;26309;50.924;4.754;2023-07-29T06:22:32;20.90;99.90
40600;DHT22;26309;50.924;4.754;2023-07-29T06:24:58;20.80;99.90
40600;DHT22;26309;50.924;4.754;2023-07-29T06:27:24;20.70;99.90
40600;DHT22;26309;50.924;4.754;2023-07-29T06:29:51;20.70;99.90
40600;DHT22;26309;50.924;4.754;2023-07-29T06:32:16;20.70;99.90
40600;DHT22;26309;50.924;4.754;2023-07-29T06:34:42;20.80;99.90
40600;DHT22;26309;50.924;4.754;2023-07-29T06:37:08;21.00;99.90
40600;DHT22;26309;50.924;4.754;2023-07-29T06:39:34;21.20;99.90
40600;DHT22;26309;50.924;4.754;2023-07-29T06:42:00;21.30;99.90
40600;DHT22;26309;50.924;4.754;2023-07-29T06:44:25;21.30;99.90
40600;DHT22;26309;50.924;4.754;2023-07-29T06:46:51;21.30;99.90
40600;DHT22;26309;50.924;4.754;2023-07-29T06:49:18;21.30;99.90
40600;DHT22;26309;50.924;4.754;2023-07-29T06:51:44;21.40;99.90
40600;DHT22;26309;50.924;4.754;2023-07-29T06:54:10;21.40;99.90
40600;DHT22;26309;50.924;4.754;2023-07-29T06:56:35;21.40;99.90
40600;DHT22;26309;50.924;4.754;2023-07-29T06:59:01;21.50;99.90
40600;DHT22;26309;50.924;4.754;2023-07-29T07:01:27;21.80;99.90
40600;DHT22;26309;50.924;4.754;2023-07-29T07:03:53;22.00;99.90
40600;DHT22;26309;50.924;4.754;2023-07-29T07:06:21;22.20;99.90
40600;DHT22;26309;50.924;4.754;2023-07-29T07:08:47;22.30;99.90
40600;DHT22;26309;50.924;4.754;2023-07-29T07:11:13;22.50;99.90
40600;DHT22;26309;50.924;4.754;2023-07-29T07:13:39;22.40;99.90
40600;DHT22;26309;50.924;4.754;2023-07-29T07:16:05;22.50;99.90
40600;DHT22;26309;50.924;4.754;2023-07-29T07:18:31;22.40;99.90
40600;DHT22;26309;50.924;4.754;2023-07-29T07:20:57;22.50;99.90
40600;DHT22;26309;50.924;4.754;2023-07-29T07:23:22;22.70;99.90
40600;DHT22;26309;50.924;4.754;2023-07-29T07:25:48;22.70;99.90
40600;DHT22;26309;50.924;4.754;2023-07-29T07:28:14;22.80;99.90
40600;DHT22;26309;50.924;4.754;2023-07-29T07:30:40;22.70;99.90
40600;DHT22;26309;50.924;4.754;2023-07-29T07:33:09;22.80;99.90
40600;DHT22;26309;50.924;4.754;2023-07-29T07:35:35;22.70;99.90
40600;DHT22;26309;50.924;4.754;2023-07-29T07:38:01;22.70;99.90
40600;DHT22;26309;50.924;4.754;2023-07-29T07:40:31;22.50;99.90
40600;DHT22;26309;50.924;4.754;2023-07-29T07:42:57;22.30;99.90
40600;DHT22;26309;50.924;4.754;2023-07-29T07:45:22;22.30;99.90
40600;DHT22;26309;50.924;4.754;2023-07-29T07:47:48;22.40;99.90
40600;DHT22;26309;50.924;4.754;2023-07-29T07:50:14;22.30;99.90
40600;DHT22;26309;50.924;4.754;2023-07-29T07:52:40;22.00;99.90
40600;DHT22;26309;50.924;4.754;2023-07-29T07:55:06;21.80;99.90
40600;DHT22;26309;50.924;4.754;2023-07-29T07:57:32;21.80;99.90
40600;DHT22;26309;50.924;4.754;2023-07-29T07:59:58;22.00;99.90
40600;DHT22;26309;50.924;4.754;2023-07-29T08:02:24;22.00;99.90
40600;DHT22;26309;50.924;4.754;2023-07-29T08:04:49;21.80;99.90
40600;DHT22;26309;50.924;4.754;2023-07-29T08:07:15;21.90;99.90
40600;DHT22;26309;50.924;4.754;2023-07-29T08:09:41;22.20;99.90
40600;DHT22;26309;50.924;4.754;2023-07-29T08:12:07;22.60;99.90
40600;DHT22;26309;50.924;4.754;2023-07-29T08:14:33;23.00;99.90
40600;DHT22;26309;50.924;4.754;2023-07-29T08:16:58;23.10;99.90
40600;DHT22;26309;50.924;4.754;2023-07-29T08:19:24;23.20;99.90
40600;DHT22;26309;50.924;4.754;2023-07-29T08:21:50;23.50;99.90
40600;DHT22;26309;50.924;4.754;2023-07-29T08:24:16;23.60;99.90
40600;DHT22;26309;50.924;4.754;2023-07-29T08:26:42;23.60;99.90
40600;DHT22;26309;50.924;4.754;2023-07-29T08:29:07;23.50;99.90
40600;DHT22;26309;50.924;4.754;2023-07-29T08:31:33;23.60;99.90
40600;DHT22;26309;50.924;4.754;2023-07-29T08:34:00;23.70;99.90
40600;DHT22;26309;50.924;4.754;2023-07-29T08:36:26;23.70;99.90
40600;DHT22;26309;50.924;4.754;2023-07-29T08:38:52;24.00;99.90
40600;DHT22;26309;50.924;4.754;2023-07-29T08:41:42;24.10;99.90
40600;DHT22;26309;50.924;4.754;2023-07-29T08:44:26;24.30;99.90
40600;DHT22;26309;50.924;4.754;2023-07-29T08:46:56;24.20;99.90
40600;DHT22;26309;50.924;4.754;2023-07-29T08:49:23;24.40;99.90
40600;DHT22;26309;50.924;4.754;2023-07-29T08:51:50;24.30;99.90
40600;DHT22;26309;50.924;4.754;2023-07-29T08:54:18;24.40;99.90
40600;DHT22;26309;50.924;4.754;2023-07-29T08:56:45;24.50;99.90
40600;DHT22;26309;50.924;4.754;2023-07-29T08:59:11;24.60;99.90
40600;DHT22;26309;50.924;4.754;2023-07-29T09:01:41;24.80;99.90
40600;DHT22;26309;50.924;4.754;2023-07-29T09:04:08;24.90;99.90
40600;DHT22;26309;50.924;4.754;2023-07-29T09:06:35;25.10;99.90
40600;DHT22;26309;50.924;4.754;2023-07-29T09:09:01;25.20;99.90
40600;DHT22;26309;50.924;4.754;2023-07-29T09:11:28;25.30;99.90
40600;DHT22;26309;50.924;4.754;2023-07-29T09:13:55;25.40;99.90
40600;DHT22;26309;50.924;4.754;2023-07-29T09:16:21;25.50;99.90
40600;DHT22;26309;50.924;4.754;2023-07-29T09:18:48;25.50;99.90
40600;DHT22;26309;50.924;4.754;2023-07-29T09:21:17;25.60;99.90
40600;DHT22;26309;50.924;4.754;2023-07-29T09:23:44;26.00;99.90
40600;DHT22;26309;50.924;4.754;2023-07-29T09:26:11;26.10;99.90
40600;DHT22;26309;50.924;4.754;2023-07-29T09:28:38;26.30;99.90
40600;DHT22;26309;50.924;4.754;2023-07-29T09:31:05;26.40;99.90
40600;DHT22;26309;50.924;4.754;2023-07-29T09:33:36;26.50;99.90
40600;DHT22;26309;50.924;4.754;2023-07-29T09:36:08;26.80;99.90
40600;DHT22;26309;50.924;4.754;2023-07-29T09:38:35;26.90;99.90
40600;DHT22;26309;50.924;4.754;2023-07-29T09:41:01;26.90;99.90
40600;DHT22;26309;50.924;4.754;2023-07-29T09:43:32;26.40;99.90
40600;DHT22;26309;50.924;4.754;2023-07-29T09:46:02;26.10;99.90
40600;DHT22;26309;50.924;4.754;2023-07-29T09:48:33;25.90;99.90
40600;DHT22;26309;50.924;4.754;2023-07-29T09:50:59;25.80;99.90
40600;DHT22;26309;50.924;4.754;2023-07-29T09:53:26;25.60;99.90
40600;DHT22;26309;50.924;4.754;2023-07-29T09:55:53;25.40;99.90
40600;DHT22;26309;50.924;4.754;2023-07-29T09:58:28;25.70;99.90
40600;DHT22;26309;50.924;4.754;2023-07-29T10:00:54;26.10;99.90
40600;DHT22;26309;50.924;4.754;2023-07-29T10:03:21;26.50;99.90
40600;DHT22;26309;50.924;4.754;2023-07-29T10:05:47;26.60;99.90
40600;DHT22;26309;50.924;4.754;2023-07-29T10:08:14;26.10;99.90
40600;DHT22;26309;50.924;4.754;2023-07-29T10:10:43;25.50;99.90
40600;DHT22;26309;50.924;4.754;2023-07-29T10:13:10;25.30;99.90
40600;DHT22;26309;50.924;4.754;2023-07-29T10:15:36;25.20;99.90
40600;DHT22;26309;50.924;4.754;2023-07-29T10:18:02;25.00;99.90
40600;DHT22;26309;50.924;4.754;2023-07-29T10:20:30;25.00;99.90
40600;DHT22;26309;50.924;4.754;2023-07-29T10:23:00;25.30;99.90
40600;DHT22;26309;50.924;4.754;2023-07-29T10:25:33;25.80;99.90
40600;DHT22;26309;50.924;4.754;2023-07-29T10:28:07;26.40;99.90
40600;DHT22;26309;50.924;4.754;2023-07-29T10:30:33;26.80;99.90
40600;DHT22;26309;50.924;4.754;2023-07-29T10:33:02;27.10;99.90
40600;DHT22;26309;50.924;4.754;2023-07-29T10:35:29;27.00;99.90
40600;DHT22;26309;50.924;4.754;2023-07-29T10:37:56;27.00;99.90
40600;DHT22;26309;50.924;4.754;2023-07-29T10:40:22;27.00;99.90
40600;DHT22;26309;50.924;4.754;2023-07-29T10:43:01;26.90;99.90
40600;DHT22;26309;50.924;4.754;2023-07-29T10:45:41;26.70;99.90
40600;DHT22;26309;50.924;4.754;2023-07-29T10:48:11;26.10;99.90
40600;DHT22;26309;50.924;4.754;2023-07-29T10:50:37;26.00;99.90
40600;DHT22;26309;50.924;4.754;2023-07-29T10:53:04;25.90;99.90
40600;DHT22;26309;50.924;4.754;2023-07-29T10:55:35;25.70;99.90
40600;DHT22;26309;50.924;4.754;2023-07-29T10:58:15;25.00;99.90
40600;DHT22;26309;50.924;4.754;2023-07-29T11:00:45;24.50;99.90
40600;DHT22;26309;50.924;4.754;2023-07-29T11:03:12;23.90;99.90
40600;DHT22;26309;50.924;4.754;2023-07-29T11:08:27;23.40;99.90
40600;DHT22;26309;50.924;4.754;2023-07-29T11:13:30;23.30;99.90
40600;DHT22;26309;50.924;4.754;2023-07-29T11:15:56;23.00;99.90
40600;DHT22;26309;50.924;4.754;2023-07-29T11:18:31;22.80;99.90
40600;DHT22;26309;50.924;4.754;2023-07-29T11:20:59;23.10;99.90
40600;DHT22;26309;50.924;4.754;2023-07-29T11:23:30;23.30;99.90
40600;DHT22;26309;50.924;4.754;2023-07-29T11:25:56;23.80;99.90
40600;DHT22;26309;50.924;4.754;2023-07-29T11:28:22;24.10;99.90
40600;DHT22;26309;50.924;4.754;2023-07-29T11:30:50;24.30;99.90
40600;DHT22;26309;50.924;4.754;2023-07-29T11:33:29;24.50;99.90
40600;DHT22;26309;50.924;4.754;2023-07-29T11:35:56;24.80;99.90
40600;DHT22;26309;50.924;4.754;2023-07-29T11:38:22;24.90;99.90
40600;DHT22;26309;50.924;4.754;2023-07-29T11:41:00;25.10;99.90
40600;DHT22;26309;50.924;4.754;2023-07-29T11:43:26;25.30;99.90
40600;DHT22;26309;50.924;4.754;2023-07-29T11:45:53;25.30;99.90
40600;DHT22;26309;50.924;4.754;2023-07-29T11:48:30;25.20;99.90
40600;DHT22;26309;50.924;4.754;2023-07-29T11:50:56;25.40;99.90
40600;DHT22;26309;50.924;4.754;2023-07-29T11:53:27;25.50;99.90
40600;DHT22;26309;50.924;4.754;2023-07-29T11:55:54;25.60;99.90
40600;DHT22;26309;50.924;4.754;2023-07-29T11:58:20;25.30;99.90
40600;DHT22;26309;50.924;4.754;2023-07-29T12:00:47;25.00;99.90
40600;DHT22;26309;50.924;4.754;2023-07-29T12:03:14;24.80;99.90
40600;DHT22;26309;50.924;4.754;2023-07-29T12:05:42;25.00;99.90
40600;DHT22;26309;50.924;4.754;2023-07-29T12:08:08;25.30;99.90
40600;DHT22;26309;50.924;4.754;2023-07-29T12:10:35;25.50;99.90
40600;DHT22;26309;50.924;4.754;2023-07-29T12:13:02;25.80;99.90
40600;DHT22;26309;50.924;4.754;2023-07-29T12:15:30;26.10;99.90
40600;DHT22;26309;50.924;4.754;2023-07-29T12:17:57;26.20;99.90
40600;DHT22;26309;50.924;4.754;2023-07-29T12:20:25;26.20;99.90
40600;DHT22;26309;50.924;4.754;2023-07-29T12:23:09;26.30;99.90
40600;DHT22;26309;50.924;4.754;2023-07-29T12:25:39;26.30;99.90
40600;DHT22;26309;50.924;4.754;2023-07-29T12:28:06;26.20;99.90
40600;DHT22;26309;50.924;4.754;2023-07-29T12:30:32;26.10;99.90
40600;DHT22;26309;50.924;4.754;2023-07-29T12:32:58;26.00;99.90
40600;DHT22;26309;50.924;4.754;2023-07-29T12:35:25;25.90;99.90
40600;DHT22;26309;50.924;4.754;2023-07-29T12:37:59;25.30;99.90
40600;DHT22;26309;50.924;4.754;2023-07-29T12:40:26;24.70;99.90
40600;DHT22;26309;50.924;4.754;2023-07-29T12:42:52;24.10;99.90
40600;DHT22;26309;50.924;4.754;2023-07-29T12:45:19;23.60;99.90
40600;DHT22;26309;50.924;4.754;2023-07-29T12:47:45;23.30;99.90
40600;DHT22;26309;50.924;4.754;2023-07-29T12:50:12;22.80;99.90
40600;DHT22;26309;50.924;4.754;2023-07-29T12:52:38;22.20;99.90
40600;DHT22;26309;50.924;4.754;2023-07-29T12:55:05;21.60;99.90
40600;DHT22;26309;50.924;4.754;2023-07-29T12:57:31;21.30;99.90
40600;DHT22;26309;50.924;4.754;2023-07-29T12:59:57;21.10;99.90
40600;DHT22;26309;50.924;4.754;2023-07-29T13:02:23;21.00;99.90
40600;DHT22;26309;50.924;4.754;2023-07-29T13:04:56;21.00;99.90
40600;DHT22;26309;50.924;4.754;2023-07-29T13:07:27;21.30;99.90
40600;DHT22;26309;50.924;4.754;2023-07-29T13:09:52;21.60;99.90
40600;DHT22;26309;50.924;4.754;2023-07-29T13:12:18;21.70;99.90
40600;DHT22;26309;50.924;4.754;2023-07-29T13:14:44;22.10;99.90
40600;DHT22;26309;50.924;4.754;2023-07-29T13:17:10;22.40;99.90
40600;DHT22;26309;50.924;4.754;2023-07-29T13:19:36;22.60;99.90
40600;DHT22;26309;50.924;4.754;2023-07-29T13:22:02;23.00;99.90
40600;DHT22;26309;50.924;4.754;2023-07-29T13:24:28;23.30;99.90
40600;DHT22;26309;50.924;4.754;2023-07-29T13:26:54;23.60;99.90
40600;DHT22;26309;50.924;4.754;2023-07-29T13:29:20;23.80;99.90
40600;DHT22;26309;50.924;4.754;2023-07-29T13:31:46;24.10;99.90
40600;DHT22;26309;50.924;4.754;2023-07-29T13:34:13;24.00;99.90
40600;DHT22;26309;50.924;4.754;2023-07-29T13:36:39;24.20;99.90
40600;DHT22;26309;50.924;4.754;2023-07-29T13:39:05;24.40;99.90
40600;DHT22;26309;50.924;4.754;2023-07-29T13:41:31;24.50;99.90
40600;DHT22;26309;50.924;4.754;2023-07-29T13:43:57;24.70;99.90
40600;DHT22;26309;50.924;4.754;2023-07-29T13:46:22;24.80;99.90
40600;DHT22;26309;50.924;4.754;2023-07-29T13:48:48;24.90;99.90
40600;DHT22;26309;50.924;4.754;2023-07-29T13:51:14;25.30;99.90
40600;DHT22;26309;50.924;4.754;2023-07-29T13:53:40;25.50;99.90
40600;DHT22;26309;50.924;4.754;2023-07-29T13:56:06;25.70;99.90
40600;DHT22;26309;50.924;4.754;2023-07-29T13:58:32;25.70;99.90
40600;DHT22;26309;50.924;4.754;2023-07-29T14:00:57;25.60;99.90
40600;DHT22;26309;50.924;4.754;2023-07-29T14:03:23;25.50;99.90
40600;DHT22;26309;50.924;4.754;2023-07-29T14:05:49;25.80;99.90
40600;DHT22;26309;50.924;4.754;2023-07-29T14:08:15;26.50;99.90
40600;DHT22;26309;50.924;4.754;2023-07-29T14:10:43;27.10;99.90
40600;DHT22;26309;50.924;4.754;2023-07-29T14:13:09;27.40;99.90
40600;DHT22;26309;50.924;4.754;2023-07-29T14:15:35;27.70;99.90
40600;DHT22;26309;50.924;4.754;2023-07-29T14:18:01;27.60;99.90
40600;DHT22;26309;50.924;4.754;2023-07-29T14:20:28;27.40;99.90
40600;DHT22;26309;50.924;4.754;2023-07-29T14:22:54;27.20;99.90
40600;DHT22;26309;50.924;4.754;2023-07-29T14:25:19;27.00;99.90
40600;DHT22;26309;50.924;4.754;2023-07-29T14:27:45;27.10;99.90
40600;DHT22;26309;50.924;4.754;2023-07-29T14:30:11;26.60;99.90
40600;DHT22;26309;50.924;4.754;2023-07-29T14:32:37;26.60;99.90
40600;DHT22;26309;50.924;4.754;2023-07-29T14:35:03;26.50;99.90
40600;DHT22;26309;50.924;4.754;2023-07-29T14:37:30;26.40;99.90
40600;DHT22;26309;50.924;4.754;2023-07-29T14:39:57;26.40;99.90
40600;DHT22;26309;50.924;4.754;2023-07-29T14:42:24;26.60;99.90
40600;DHT22;26309;50.924;4.754;2023-07-29T14:44:49;27.10;99.90
40600;DHT22;26309;50.924;4.754;2023-07-29T14:47:15;27.30;99.90
40600;DHT22;26309;50.924;4.754;2023-07-29T14:49:43;27.70;99.90
40600;DHT22;26309;50.924;4.754;2023-07-29T14:52:09;28.10;99.90
40600;DHT22;26309;50.924;4.754;2023-07-29T14:54:35;28.00;99.90
40600;DHT22;26309;50.924;4.754;2023-07-29T14:57:01;28.30;99.90
40600;DHT22;26309;50.924;4.754;2023-07-29T14:59:26;28.20;99.90
40600;DHT22;26309;50.924;4.754;2023-07-29T15:01:52;28.10;99.90
40600;DHT22;26309;50.924;4.754;2023-07-29T15:04:18;27.90;99.90
40600;DHT22;26309;50.924;4.754;2023-07-29T15:06:44;27.50;99.90
40600;DHT22;26309;50.924;4.754;2023-07-29T15:09:11;27.30;99.90
40600;DHT22;26309;50.924;4.754;2023-07-29T15:11:37;27.80;99.90
40600;DHT22;26309;50.924;4.754;2023-07-29T15:14:03;28.40;99.90
40600;DHT22;26309;50.924;4.754;2023-07-29T15:16:29;28.80;99.90
40600;DHT22;26309;50.924;4.754;2023-07-29T15:18:57;29.70;99.90
40600;DHT22;26309;50.924;4.754;2023-07-29T15:21:23;30.40;97.80
40600;DHT22;26309;50.924;4.754;2023-07-29T15:23:49;30.30;98.00
40600;DHT22;26309;50.924;4.754;2023-07-29T15:26:15;29.60;97.60
40600;DHT22;26309;50.924;4.754;2023-07-29T15:28:41;29.20;98.30
40600;DHT22;26309;50.924;4.754;2023-07-29T15:31:07;29.40;97.90
40600;DHT22;26309;50.924;4.754;2023-07-29T15:33:33;29.40;97.30
40600;DHT22;26309;50.924;4.754;2023-07-29T15:36:01;28.60;98.30
40600;DHT22;26309;50.924;4.754;2023-07-29T15:38:27;28.30;98.80
40600;DHT22;26309;50.924;4.754;2023-07-29T15:40:53;28.00;99.10